sensor_id;sensor_type;location;lat;lon;timestamp;P1;durP1;ratioP1;P2;durP2;ratioP2
15818;SDS011;8010;53.986;12.106;2022-10-12T00:01:57;7.43;;;1.60;;
15818;SDS011;8010;53.986;12.106;2022-10-12T00:04:23;3.43;;;1.30;;
15818;SDS011;8010;53.986;12.106;2022-10-12T00:06:49;8.20;;;1.70;;
15818;SDS011;8010;53.986;12.106;2022-10-12T00:09:14;6.33;;;2.27;;
15818;SDS011;8010;53.986;12.106;2022-10-12T00:11:40;8.47;;;1.80;;
15818;SDS011;8010;53.986;12.106;2022-10-12T00:14:05;7.97;;;2.27;;
15818;SDS011;8010;53.986;12.106;2022-10-12T00:16:31;5.90;;;1.63;;
15818;SDS011;8010;53.986;12.106;2022-10-12T00:18:58;6.63;;;1.60;;
15818;SDS011;8010;53.986;12.106;2022-10-12T00:21:24;8.47;;;2.00;;
15818;SDS011;8010;53.986;12.106;2022-10-12T00:23:52;4.87;;;1.73;;
15818;SDS011;8010;53.986;12.106;2022-10-12T00:26:25;9.27;;;2.00;;
15818;SDS011;8010;53.986;12.106;2022-10-12T00:28:55;7.47;;;2.33;;
15818;SDS011;8010;53.986;12.106;2022-10-12T00:31:22;10.10;;;1.97;;
15818;SDS011;8010;53.986;12.106;2022-10-12T00:33:48;2.83;;;1.53;;
15818;SDS011;8010;53.986;12.106;2022-10-12T00:36:18;6.03;;;2.00;;
15818;SDS011;8010;53.986;12.106;2022-10-12T00:38:45;8.00;;;1.70;;
15818;SDS011;8010;53.986;12.106;2022-10-12T00:41:12;8.23;;;2.27;;
15818;SDS011;8010;53.986;12.106;2022-10-12T00:43:39;4.60;;;1.50;;
15818;SDS011;8010;53.986;12.106;2022-10-12T00:48:58;7.13;;;1.53;;
15818;SDS011;8010;53.986;12.106;2022-10-12T00:51:52;5.70;;;1.60;;
15818;SDS011;8010;53.986;12.106;2022-10-12T00:54:26;3.67;;;1.67;;
15818;SDS011;8010;53.986;12.106;2022-10-12T00:56:56;8.67;;;2.20;;
15818;SDS011;8010;53.986;12.106;2022-10-12T00:59:37;9.83;;;2.27;;
15818;SDS011;8010;53.986;12.106;2022-10-12T01:02:08;8.07;;;2.10;;
15818;SDS011;8010;53.986;12.106;2022-10-12T01:04:34;7.90;;;2.03;;
15818;SDS011;8010;53.986;12.106;2022-10-12T01:07:00;7.67;;;2.27;;
15818;SDS011;8010;53.986;12.106;2022-10-12T01:09:27;6.83;;;1.90;;
15818;SDS011;8010;53.986;12.106;2022-10-12T01:11:54;6.20;;;2.00;;
15818;SDS011;8010;53.986;12.106;2022-10-12T01:14:21;6.07;;;1.90;;
15818;SDS011;8010;53.986;12.106;2022-10-12T01:16:50;4.20;;;1.90;;
15818;SDS011;8010;53.986;12.106;2022-10-12T01:19:58;10.30;;;2.10;;
15818;SDS011;8010;53.986;12.106;2022-10-12T01:22:43;7.97;;;2.00;;
15818;SDS011;8010;53.986;12.106;2022-10-12T01:34:08;6.63;;;1.80;;
15818;SDS011;8010;53.986;12.106;2022-10-12T01:36:36;5.40;;;1.90;;
15818;SDS011;8010;53.986;12.106;2022-10-12T01:39:08;9.47;;;2.23;;
15818;SDS011;8010;53.986;12.106;2022-10-12T01:41:49;7.33;;;2.00;;
15818;SDS011;8010;53.986;12.106;2022-10-12T01:44:21;7.00;;;2.00;;
15818;SDS011;8010;53.986;12.106;2022-10-12T01:46:49;9.97;;;1.97;;
15818;SDS011;8010;53.986;12.106;2022-10-12T01:49:20;6.20;;;2.10;;
15818;SDS011;8010;53.986;12.106;2022-10-12T01:52:06;5.63;;;2.30;;
15818;SDS011;8010;53.986;12.106;2022-10-12T01:55:10;5.20;;;2.03;;
15818;SDS011;8010;53.986;12.106;2022-10-12T01:58:03;4.93;;;2.03;;
15818;SDS011;8010;53.986;12.106;2022-10-12T02:06:52;8.03;;;2.20;;
15818;SDS011;8010;53.986;12.106;2022-10-12T02:09:25;6.63;;;2.40;;
15818;SDS011;8010;53.986;12.106;2022-10-12T02:11:54;5.53;;;2.10;;
15818;SDS011;8010;53.986;12.106;2022-10-12T02:14:23;7.97;;;1.83;;
15818;SDS011;8010;53.986;12.106;2022-10-12T02:16:57;3.67;;;1.80;;
15818;SDS011;8010;53.986;12.106;2022-10-12T02:19:25;5.80;;;2.20;;
15818;SDS011;8010;53.986;12.106;2022-10-12T02:21:55;4.13;;;1.83;;
15818;SDS011;8010;53.986;12.106;2022-10-12T02:24:24;5.53;;;2.57;;
15818;SDS011;8010;53.986;12.106;2022-10-12T02:26:52;6.50;;;2.47;;
15818;SDS011;8010;53.986;12.106;2022-10-12T02:29:19;6.00;;;2.63;;
15818;SDS011;8010;53.986;12.106;2022-10-12T02:31:58;7.13;;;2.60;;
15818;SDS011;8010;53.986;12.106;2022-10-12T02:34:54;7.97;;;2.43;;
15818;SDS011;8010;53.986;12.106;2022-10-12T02:37:27;9.50;;;2.63;;
15818;SDS011;8010;53.986;12.106;2022-10-12T02:40:32;7.07;;;2.10;;
15818;SDS011;8010;53.986;12.106;2022-10-12T02:43:08;8.63;;;2.20;;
15818;SDS011;8010;53.986;12.106;2022-10-12T02:45:39;4.87;;;2.10;;
15818;SDS011;8010;53.986;12.106;2022-10-12T02:48:10;7.47;;;2.30;;
15818;SDS011;8010;53.986;12.106;2022-10-12T02:50:39;9.60;;;2.60;;
15818;SDS011;8010;53.986;12.106;2022-10-12T02:53:05;8.03;;;2.67;;
15818;SDS011;8010;53.986;12.106;2022-10-12T02:55:36;4.73;;;2.20;;
15818;SDS011;8010;53.986;12.106;2022-10-12T02:58:02;4.77;;;2.10;;
15818;SDS011;8010;53.986;12.106;2022-10-12T03:00:28;6.13;;;2.70;;
15818;SDS011;8010;53.986;12.106;2022-10-12T03:02:57;6.77;;;2.20;;
15818;SDS011;8010;53.986;12.106;2022-10-12T03:05:23;5.90;;;2.50;;
15818;SDS011;8010;53.986;12.106;2022-10-12T03:07:48;6.67;;;2.40;;
15818;SDS011;8010;53.986;12.106;2022-10-12T03:10:14;3.97;;;2.03;;
15818;SDS011;8010;53.986;12.106;2022-10-12T03:12:39;5.07;;;2.60;;
15818;SDS011;8010;53.986;12.106;2022-10-12T03:15:05;6.10;;;2.20;;
15818;SDS011;8010;53.986;12.106;2022-10-12T03:17:31;3.43;;;2.17;;
15818;SDS011;8010;53.986;12.106;2022-10-12T03:19:56;5.73;;;2.40;;
15818;SDS011;8010;53.986;12.106;2022-10-12T03:22:22;7.53;;;2.10;;
15818;SDS011;8010;53.986;12.106;2022-10-12T03:24:47;3.90;;;1.90;;
15818;SDS011;8010;53.986;12.106;2022-10-12T03:27:13;7.23;;;2.90;;
15818;SDS011;8010;53.986;12.106;2022-10-12T03:29:38;5.83;;;2.20;;
15818;SDS011;8010;53.986;12.106;2022-10-12T03:32:04;3.30;;;2.03;;
15818;SDS011;8010;53.986;12.106;2022-10-12T03:34:29;6.07;;;2.27;;
15818;SDS011;8010;53.986;12.106;2022-10-12T03:36:55;7.90;;;2.53;;
15818;SDS011;8010;53.986;12.106;2022-10-12T03:39:20;9.47;;;2.40;;
15818;SDS011;8010;53.986;12.106;2022-10-12T03:41:46;7.13;;;1.97;;
15818;SDS011;8010;53.986;12.106;2022-10-12T03:44:11;5.00;;;2.20;;
15818;SDS011;8010;53.986;12.106;2022-10-12T03:46:37;5.53;;;2.33;;
15818;SDS011;8010;53.986;12.106;2022-10-12T03:49:02;6.43;;;1.90;;
15818;SDS011;8010;53.986;12.106;2022-10-12T03:51:28;4.43;;;2.13;;
15818;SDS011;8010;53.986;12.106;2022-10-12T03:53:53;3.30;;;2.10;;
15818;SDS011;8010;53.986;12.106;2022-10-12T03:56:19;4.90;;;2.03;;
15818;SDS011;8010;53.986;12.106;2022-10-12T03:58:44;7.30;;;1.93;;
15818;SDS011;8010;53.986;12.106;2022-10-12T04:01:10;4.93;;;1.90;;
15818;SDS011;8010;53.986;12.106;2022-10-12T04:03:35;5.30;;;2.40;;
15818;SDS011;8010;53.986;12.106;2022-10-12T04:06:01;5.97;;;2.40;;
15818;SDS011;8010;53.986;12.106;2022-10-12T04:08:26;4.50;;;2.40;;
15818;SDS011;8010;53.986;12.106;2022-10-12T04:10:52;5.00;;;2.23;;
15818;SDS011;8010;53.986;12.106;2022-10-12T04:13:18;5.80;;;2.30;;
15818;SDS011;8010;53.986;12.106;2022-10-12T04:15:44;8.37;;;2.47;;
15818;SDS011;8010;53.986;12.106;2022-10-12T04:18:09;6.03;;;2.33;;
15818;SDS011;8010;53.986;12.106;2022-10-12T04:20:35;5.17;;;2.30;;
15818;SDS011;8010;53.986;12.106;2022-10-12T04:23:01;4.27;;;2.20;;
15818;SDS011;8010;53.986;12.106;2022-10-12T04:25:26;3.37;;;1.90;;
15818;SDS011;8010;53.986;12.106;2022-10-12T04:27:52;5.40;;;2.37;;
15818;SDS011;8010;53.986;12.106;2022-10-12T04:30:18;7.63;;;2.33;;
15818;SDS011;8010;53.986;12.106;2022-10-12T04:32:43;5.00;;;2.40;;
15818;SDS011;8010;53.986;12.106;2022-10-12T04:35:09;7.23;;;2.20;;
15818;SDS011;8010;53.986;12.106;2022-10-12T04:37:35;3.63;;;2.50;;
15818;SDS011;8010;53.986;12.106;2022-10-12T04:40:00;7.97;;;2.50;;
15818;SDS011;8010;53.986;12.106;2022-10-12T04:42:27;6.70;;;2.90;;
15818;SDS011;8010;53.986;12.106;2022-10-12T04:44:52;5.40;;;2.63;;
15818;SDS011;8010;53.986;12.106;2022-10-12T04:47:18;5.70;;;2.83;;
15818;SDS011;8010;53.986;12.106;2022-10-12T04:49:43;3.83;;;3.03;;
15818;SDS011;8010;53.986;12.106;2022-10-12T04:52:09;6.10;;;3.60;;
15818;SDS011;8010;53.986;12.106;2022-10-12T04:54:34;4.90;;;3.97;;
15818;SDS011;8010;53.986;12.106;2022-10-12T04:57:00;7.53;;;3.80;;
15818;SDS011;8010;53.986;12.106;2022-10-12T04:59:25;5.43;;;3.40;;
15818;SDS011;8010;53.986;12.106;2022-10-12T05:01:51;6.17;;;3.23;;
15818;SDS011;8010;53.986;12.106;2022-10-12T05:04:18;5.57;;;3.03;;
15818;SDS011;8010;53.986;12.106;2022-10-12T05:06:44;5.63;;;3.00;;
15818;SDS011;8010;53.986;12.106;2022-10-12T05:09:09;4.70;;;2.77;;
15818;SDS011;8010;53.986;12.106;2022-10-12T05:11:35;5.57;;;3.00;;
15818;SDS011;8010;53.986;12.106;2022-10-12T05:14:01;6.27;;;3.73;;
15818;SDS011;8010;53.986;12.106;2022-10-12T05:16:26;6.40;;;3.87;;
15818;SDS011;8010;53.986;12.106;2022-10-12T05:18:52;5.43;;;4.67;;
15818;SDS011;8010;53.986;12.106;2022-10-12T05:21:17;5.73;;;3.93;;
15818;SDS011;8010;53.986;12.106;2022-10-12T05:23:43;4.50;;;3.60;;
15818;SDS011;8010;53.986;12.106;2022-10-12T05:26:09;8.10;;;4.20;;
15818;SDS011;8010;53.986;12.106;2022-10-12T05:28:34;6.30;;;3.30;;
15818;SDS011;8010;53.986;12.106;2022-10-12T05:31:00;4.43;;;3.00;;
15818;SDS011;8010;53.986;12.106;2022-10-12T05:33:25;3.87;;;2.63;;
15818;SDS011;8010;53.986;12.106;2022-10-12T05:35:51;6.10;;;2.70;;
15818;SDS011;8010;53.986;12.106;2022-10-12T05:38:16;2.43;;;2.20;;
15818;SDS011;8010;53.986;12.106;2022-10-12T05:40:43;2.93;;;2.00;;
15818;SDS011;8010;53.986;12.106;2022-10-12T05:43:08;7.37;;;2.80;;
15818;SDS011;8010;53.986;12.106;2022-10-12T05:45:34;5.50;;;2.87;;
15818;SDS011;8010;53.986;12.106;2022-10-12T05:47:59;3.63;;;2.67;;
15818;SDS011;8010;53.986;12.106;2022-10-12T05:50:25;5.07;;;2.70;;
15818;SDS011;8010;53.986;12.106;2022-10-12T05:52:50;5.67;;;2.80;;
15818;SDS011;8010;53.986;12.106;2022-10-12T05:55:16;5.53;;;2.77;;
15818;SDS011;8010;53.986;12.106;2022-10-12T05:57:41;5.60;;;2.50;;
15818;SDS011;8010;53.986;12.106;2022-10-12T06:00:08;4.17;;;2.60;;
15818;SDS011;8010;53.986;12.106;2022-10-12T06:02:34;4.87;;;2.60;;
15818;SDS011;8010;53.986;12.106;2022-10-12T06:04:59;6.07;;;2.70;;
15818;SDS011;8010;53.986;12.106;2022-10-12T06:07:25;4.47;;;2.80;;
15818;SDS011;8010;53.986;12.106;2022-10-12T06:09:51;3.33;;;2.30;;
15818;SDS011;8010;53.986;12.106;2022-10-12T06:12:17;2.87;;;2.30;;
15818;SDS011;8010;53.986;12.106;2022-10-12T06:14:42;3.60;;;2.00;;
15818;SDS011;8010;53.986;12.106;2022-10-12T06:17:08;2.00;;;1.67;;
15818;SDS011;8010;53.986;12.106;2022-10-12T06:19:34;3.10;;;1.80;;
15818;SDS011;8010;53.986;12.106;2022-10-12T06:22:00;6.27;;;2.30;;
15818;SDS011;8010;53.986;12.106;2022-10-12T06:24:26;4.17;;;2.10;;
15818;SDS011;8010;53.986;12.106;2022-10-12T06:26:52;3.63;;;2.20;;
15818;SDS011;8010;53.986;12.106;2022-10-12T06:29:17;4.03;;;1.50;;
15818;SDS011;8010;53.986;12.106;2022-10-12T06:31:43;2.77;;;2.27;;
15818;SDS011;8010;53.986;12.106;2022-10-12T06:34:08;14.63;;;2.57;;
15818;SDS011;8010;53.986;12.106;2022-10-12T06:36:34;3.37;;;2.13;;
15818;SDS011;8010;53.986;12.106;2022-10-12T06:39:00;3.20;;;2.23;;
15818;SDS011;8010;53.986;12.106;2022-10-12T06:41:25;3.40;;;2.53;;
15818;SDS011;8010;53.986;12.106;2022-10-12T06:43:51;3.60;;;2.40;;
15818;SDS011;8010;53.986;12.106;2022-10-12T06:46:16;3.87;;;2.27;;
15818;SDS011;8010;53.986;12.106;2022-10-12T06:48:42;7.00;;;2.20;;
15818;SDS011;8010;53.986;12.106;2022-10-12T06:51:07;5.30;;;2.00;;
15818;SDS011;8010;53.986;12.106;2022-10-12T06:53:33;6.87;;;2.23;;
15818;SDS011;8010;53.986;12.106;2022-10-12T06:56:04;6.37;;;2.27;;
15818;SDS011;8010;53.986;12.106;2022-10-12T06:58:30;5.70;;;2.03;;
15818;SDS011;8010;53.986;12.106;2022-10-12T07:00:56;4.23;;;2.20;;
15818;SDS011;8010;53.986;12.106;2022-10-12T07:03:21;3.83;;;2.00;;
15818;SDS011;8010;53.986;12.106;2022-10-12T07:05:47;3.87;;;2.47;;
15818;SDS011;8010;53.986;12.106;2022-10-12T07:08:12;4.17;;;2.33;;
15818;SDS011;8010;53.986;12.106;2022-10-12T07:10:38;3.50;;;1.93;;
15818;SDS011;8010;53.986;12.106;2022-10-12T07:13:03;4.97;;;3.00;;
15818;SDS011;8010;53.986;12.106;2022-10-12T07:15:29;4.17;;;2.37;;
15818;SDS011;8010;53.986;12.106;2022-10-12T07:17:54;4.97;;;2.50;;
15818;SDS011;8010;53.986;12.106;2022-10-12T07:20:20;5.20;;;2.30;;
15818;SDS011;8010;53.986;12.106;2022-10-12T07:22:46;6.93;;;3.43;;
15818;SDS011;8010;53.986;12.106;2022-10-12T07:25:11;7.63;;;3.63;;
15818;SDS011;8010;53.986;12.106;2022-10-12T07:27:37;5.00;;;3.10;;
15818;SDS011;8010;53.986;12.106;2022-10-12T07:30:02;5.13;;;2.80;;
15818;SDS011;8010;53.986;12.106;2022-10-12T07:32:28;5.30;;;2.93;;
15818;SDS011;8010;53.986;12.106;2022-10-12T07:34:54;8.30;;;3.10;;
15818;SDS011;8010;53.986;12.106;2022-10-12T07:37:19;7.87;;;3.17;;
15818;SDS011;8010;53.986;12.106;2022-10-12T07:39:45;8.00;;;3.50;;
15818;SDS011;8010;53.986;12.106;2022-10-12T07:42:10;5.17;;;2.73;;
15818;SDS011;8010;53.986;12.106;2022-10-12T07:44:37;5.77;;;3.00;;
15818;SDS011;8010;53.986;12.106;2022-10-12T07:47:02;4.57;;;3.13;;
15818;SDS011;8010;53.986;12.106;2022-10-12T07:49:28;10.07;;;3.37;;
15818;SDS011;8010;53.986;12.106;2022-10-12T07:51:54;7.27;;;3.40;;
15818;SDS011;8010;53.986;12.106;2022-10-12T07:54:19;10.67;;;3.17;;
15818;SDS011;8010;53.986;12.106;2022-10-12T07:56:45;7.07;;;3.03;;
15818;SDS011;8010;53.986;12.106;2022-10-12T07:59:11;7.30;;;3.67;;
15818;SDS011;8010;53.986;12.106;2022-10-12T08:01:36;7.13;;;2.90;;
15818;SDS011;8010;53.986;12.106;2022-10-12T08:04:02;8.33;;;3.40;;
15818;SDS011;8010;53.986;12.106;2022-10-12T08:06:31;6.27;;;2.83;;
15818;SDS011;8010;53.986;12.106;2022-10-12T08:08:58;7.53;;;3.57;;
15818;SDS011;8010;53.986;12.106;2022-10-12T08:11:24;5.70;;;3.07;;
15818;SDS011;8010;53.986;12.106;2022-10-12T08:13:50;6.07;;;2.93;;
15818;SDS011;8010;53.986;12.106;2022-10-12T08:16:17;7.67;;;3.17;;
15818;SDS011;8010;53.986;12.106;2022-10-12T08:18:44;8.77;;;3.13;;
15818;SDS011;8010;53.986;12.106;2022-10-12T08:21:11;11.17;;;3.30;;
15818;SDS011;8010;53.986;12.106;2022-10-12T08:23:38;12.10;;;3.97;;
15818;SDS011;8010;53.986;12.106;2022-10-12T08:26:04;7.50;;;3.50;;
15818;SDS011;8010;53.986;12.106;2022-10-12T08:28:30;6.27;;;2.83;;
15818;SDS011;8010;53.986;12.106;2022-10-12T08:30:56;7.63;;;3.30;;
15818;SDS011;8010;53.986;12.106;2022-10-12T08:33:21;9.93;;;3.13;;
15818;SDS011;8010;53.986;12.106;2022-10-12T08:35:47;8.03;;;4.07;;
15818;SDS011;8010;53.986;12.106;2022-10-12T08:38:13;12.13;;;3.40;;
15818;SDS011;8010;53.986;12.106;2022-10-12T08:43:25;8.20;;;3.00;;
15818;SDS011;8010;53.986;12.106;2022-10-12T08:46:02;11.07;;;3.63;;
15818;SDS011;8010;53.986;12.106;2022-10-12T08:48:46;11.67;;;3.10;;
15818;SDS011;8010;53.986;12.106;2022-10-12T08:51:19;8.60;;;3.23;;
15818;SDS011;8010;53.986;12.106;2022-10-12T08:53:54;8.87;;;3.20;;
15818;SDS011;8010;53.986;12.106;2022-10-12T08:56:37;12.77;;;3.80;;
15818;SDS011;8010;53.986;12.106;2022-10-12T08:59:05;8.13;;;3.37;;
15818;SDS011;8010;53.986;12.106;2022-10-12T09:01:38;11.33;;;3.87;;
15818;SDS011;8010;53.986;12.106;2022-10-12T09:04:30;11.83;;;3.77;;
15818;SDS011;8010;53.986;12.106;2022-10-12T09:06:59;6.70;;;3.03;;
15818;SDS011;8010;53.986;12.106;2022-10-12T09:09:37;7.83;;;3.60;;
15818;SDS011;8010;53.986;12.106;2022-10-12T09:15:00;12.63;;;4.10;;
15818;SDS011;8010;53.986;12.106;2022-10-12T09:17:34;10.00;;;3.80;;
15818;SDS011;8010;53.986;12.106;2022-10-12T09:20:15;9.10;;;3.57;;
15818;SDS011;8010;53.986;12.106;2022-10-12T09:22:46;8.90;;;4.00;;
15818;SDS011;8010;53.986;12.106;2022-10-12T09:25:14;6.97;;;3.23;;
15818;SDS011;8010;53.986;12.106;2022-10-12T09:27:41;11.27;;;4.03;;
15818;SDS011;8010;53.986;12.106;2022-10-12T09:30:11;12.07;;;3.80;;
15818;SDS011;8010;53.986;12.106;2022-10-12T09:35:19;15.77;;;3.60;;
15818;SDS011;8010;53.986;12.106;2022-10-12T09:37:45;9.33;;;3.50;;
15818;SDS011;8010;53.986;12.106;2022-10-12T09:40:20;10.87;;;3.33;;
15818;SDS011;8010;53.986;12.106;2022-10-12T09:42:51;9.37;;;2.70;;
15818;SDS011;8010;53.986;12.106;2022-10-12T09:45:19;7.93;;;2.60;;
15818;SDS011;8010;53.986;12.106;2022-10-12T09:50:40;10.90;;;3.50;;
15818;SDS011;8010;53.986;12.106;2022-10-12T09:53:12;6.90;;;3.00;;
15818;SDS011;8010;53.986;12.106;2022-10-12T09:55:59;9.83;;;2.73;;
15818;SDS011;8010;53.986;12.106;2022-10-12T09:58:24;14.63;;;3.27;;
15818;SDS011;8010;53.986;12.106;2022-10-12T10:03:43;12.80;;;3.40;;
15818;SDS011;8010;53.986;12.106;2022-10-12T10:06:09;7.37;;;2.77;;
15818;SDS011;8010;53.986;12.106;2022-10-12T10:08:39;10.87;;;2.90;;
15818;SDS011;8010;53.986;12.106;2022-10-12T10:11:12;8.53;;;2.70;;
15818;SDS011;8010;53.986;12.106;2022-10-12T10:13:43;12.23;;;2.90;;
15818;SDS011;8010;53.986;12.106;2022-10-12T10:16:11;13.17;;;2.70;;
15818;SDS011;8010;53.986;12.106;2022-10-12T10:18:41;9.53;;;2.87;;
15818;SDS011;8010;53.986;12.106;2022-10-12T10:21:15;6.97;;;3.03;;
15818;SDS011;8010;53.986;12.106;2022-10-12T10:26:57;8.03;;;2.30;;
15818;SDS011;8010;53.986;12.106;2022-10-12T10:29:34;8.47;;;3.03;;
15818;SDS011;8010;53.986;12.106;2022-10-12T10:32:18;14.27;;;2.83;;
15818;SDS011;8010;53.986;12.106;2022-10-12T10:37:41;8.60;;;2.70;;
15818;SDS011;8010;53.986;12.106;2022-10-12T10:40:17;7.63;;;2.47;;
15818;SDS011;8010;53.986;12.106;2022-10-12T10:42:49;14.33;;;2.73;;
15818;SDS011;8010;53.986;12.106;2022-10-12T10:45:21;8.57;;;2.70;;
15818;SDS011;8010;53.986;12.106;2022-10-12T10:47:56;9.07;;;2.80;;
15818;SDS011;8010;53.986;12.106;2022-10-12T10:50:29;8.07;;;2.90;;
15818;SDS011;8010;53.986;12.106;2022-10-12T10:53:04;7.10;;;2.60;;
15818;SDS011;8010;53.986;12.106;2022-10-12T10:55:47;9.33;;;2.70;;
15818;SDS011;8010;53.986;12.106;2022-10-12T10:58:23;11.77;;;2.63;;
15818;SDS011;8010;53.986;12.106;2022-10-12T11:00:52;11.90;;;2.90;;
15818;SDS011;8010;53.986;12.106;2022-10-12T11:09:26;6.33;;;2.70;;
15818;SDS011;8010;53.986;12.106;2022-10-12T11:11:58;7.47;;;2.37;;
15818;SDS011;8010;53.986;12.106;2022-10-12T11:17:51;7.37;;;2.43;;
15818;SDS011;8010;53.986;12.106;2022-10-12T11:28:30;8.77;;;2.40;;
15818;SDS011;8010;53.986;12.106;2022-10-12T11:30:57;10.27;;;2.23;;
15818;SDS011;8010;53.986;12.106;2022-10-12T11:33:28;7.27;;;2.10;;
15818;SDS011;8010;53.986;12.106;2022-10-12T11:36:02;8.77;;;2.30;;
15818;SDS011;8010;53.986;12.106;2022-10-12T11:38:43;9.80;;;1.93;;
15818;SDS011;8010;53.986;12.106;2022-10-12T11:41:19;5.47;;;2.00;;
15818;SDS011;8010;53.986;12.106;2022-10-12T11:43:54;9.10;;;1.93;;
15818;SDS011;8010;53.986;12.106;2022-10-12T11:46:34;8.03;;;2.00;;
15818;SDS011;8010;53.986;12.106;2022-10-12T11:49:11;8.40;;;2.07;;
15818;SDS011;8010;53.986;12.106;2022-10-12T11:51:48;10.07;;;2.47;;
15818;SDS011;8010;53.986;12.106;2022-10-12T11:57:09;11.43;;;2.40;;
15818;SDS011;8010;53.986;12.106;2022-10-12T12:02:37;10.30;;;2.00;;
15818;SDS011;8010;53.986;12.106;2022-10-12T12:05:12;12.13;;;2.67;;
15818;SDS011;8010;53.986;12.106;2022-10-12T12:07:41;8.97;;;2.30;;
15818;SDS011;8010;53.986;12.106;2022-10-12T12:18:12;9.97;;;2.53;;
15818;SDS011;8010;53.986;12.106;2022-10-12T12:23:19;12.10;;;3.07;;
15818;SDS011;8010;53.986;12.106;2022-10-12T12:28:36;11.53;;;2.57;;
15818;SDS011;8010;53.986;12.106;2022-10-12T12:31:06;8.90;;;2.27;;
15818;SDS011;8010;53.986;12.106;2022-10-12T12:33:46;7.33;;;2.10;;
15818;SDS011;8010;53.986;12.106;2022-10-12T12:38:51;7.20;;;2.17;;
15818;SDS011;8010;53.986;12.106;2022-10-12T12:41:18;9.17;;;1.80;;
15818;SDS011;8010;53.986;12.106;2022-10-12T12:46:21;5.47;;;2.20;;
15818;SDS011;8010;53.986;12.106;2022-10-12T12:51:14;8.13;;;2.10;;
15818;SDS011;8010;53.986;12.106;2022-10-12T12:53:58;8.00;;;2.10;;
15818;SDS011;8010;53.986;12.106;2022-10-12T12:56:33;8.43;;;1.97;;
15818;SDS011;8010;53.986;12.106;2022-10-12T13:01:28;7.50;;;1.83;;
15818;SDS011;8010;53.986;12.106;2022-10-12T13:04:26;10.63;;;1.97;;
15818;SDS011;8010;53.986;12.106;2022-10-12T13:10:02;10.63;;;1.87;;
15818;SDS011;8010;53.986;12.106;2022-10-12T13:12:45;5.30;;;1.50;;
15818;SDS011;8010;53.986;12.106;2022-10-12T13:20:56;5.57;;;2.20;;
15818;SDS011;8010;53.986;12.106;2022-10-12T13:23:23;3.43;;;1.30;;
15818;SDS011;8010;53.986;12.106;2022-10-12T13:26:01;8.53;;;2.00;;
15818;SDS011;8010;53.986;12.106;2022-10-12T13:28:33;7.90;;;1.80;;
15818;SDS011;8010;53.986;12.106;2022-10-12T13:31:10;5.63;;;2.20;;
15818;SDS011;8010;53.986;12.106;2022-10-12T13:36:26;4.83;;;1.60;;
15818;SDS011;8010;53.986;12.106;2022-10-12T13:38:57;10.97;;;1.70;;
15818;SDS011;8010;53.986;12.106;2022-10-12T13:41:30;4.33;;;1.77;;
15818;SDS011;8010;53.986;12.106;2022-10-12T13:43:57;4.17;;;1.20;;
15818;SDS011;8010;53.986;12.106;2022-10-12T13:46:41;5.13;;;1.40;;
15818;SDS011;8010;53.986;12.106;2022-10-12T13:51:43;4.50;;;1.47;;
15818;SDS011;8010;53.986;12.106;2022-10-12T13:54:15;5.10;;;1.70;;
15818;SDS011;8010;53.986;12.106;2022-10-12T13:56:53;5.23;;;1.37;;
15818;SDS011;8010;53.986;12.106;2022-10-12T13:59:22;6.63;;;1.67;;
15818;SDS011;8010;53.986;12.106;2022-10-12T14:01:55;6.40;;;1.60;;
15818;SDS011;8010;53.986;12.106;2022-10-12T14:04:32;5.70;;;1.47;;
15818;SDS011;8010;53.986;12.106;2022-10-12T14:07:03;4.20;;;1.60;;
15818;SDS011;8010;53.986;12.106;2022-10-12T14:09:41;6.80;;;1.67;;
15818;SDS011;8010;53.986;12.106;2022-10-12T14:12:11;8.87;;;1.60;;
15818;SDS011;8010;53.986;12.106;2022-10-12T14:14:38;5.73;;;1.33;;
15818;SDS011;8010;53.986;12.106;2022-10-12T14:17:11;5.10;;;1.53;;
15818;SDS011;8010;53.986;12.106;2022-10-12T14:19:46;5.63;;;1.60;;
15818;SDS011;8010;53.986;12.106;2022-10-12T14:22:30;5.77;;;1.53;;
15818;SDS011;8010;53.986;12.106;2022-10-12T14:27:31;5.20;;;1.63;;
15818;SDS011;8010;53.986;12.106;2022-10-12T14:30:03;5.97;;;1.50;;
15818;SDS011;8010;53.986;12.106;2022-10-12T14:32:49;5.27;;;1.50;;
15818;SDS011;8010;53.986;12.106;2022-10-12T14:37:49;4.67;;;1.40;;
15818;SDS011;8010;53.986;12.106;2022-10-12T14:45:23;3.93;;;1.23;;
15818;SDS011;8010;53.986;12.106;2022-10-12T14:47:49;8.27;;;2.03;;
15818;SDS011;8010;53.986;12.106;2022-10-12T14:50:17;6.47;;;1.43;;
15818;SDS011;8010;53.986;12.106;2022-10-12T14:52:45;8.57;;;1.70;;
15818;SDS011;8010;53.986;12.106;2022-10-12T14:55:22;4.67;;;1.43;;
15818;SDS011;8010;53.986;12.106;2022-10-12T14:57:49;3.73;;;1.50;;
15818;SDS011;8010;53.986;12.106;2022-10-12T15:00:16;6.53;;;1.40;;
15818;SDS011;8010;53.986;12.106;2022-10-12T15:02:52;3.70;;;1.30;;
15818;SDS011;8010;53.986;12.106;2022-10-12T15:05:19;6.93;;;1.60;;
15818;SDS011;8010;53.986;12.106;2022-10-12T15:07:46;7.90;;;1.37;;
15818;SDS011;8010;53.986;12.106;2022-10-12T15:10:12;6.27;;;1.43;;
15818;SDS011;8010;53.986;12.106;2022-10-12T15:12:38;6.27;;;1.50;;
15818;SDS011;8010;53.986;12.106;2022-10-12T15:17:48;4.70;;;1.50;;
15818;SDS011;8010;53.986;12.106;2022-10-12T15:20:13;3.70;;;1.40;;
15818;SDS011;8010;53.986;12.106;2022-10-12T15:22:39;3.67;;;1.30;;
15818;SDS011;8010;53.986;12.106;2022-10-12T15:25:07;5.37;;;1.90;;
15818;SDS011;8010;53.986;12.106;2022-10-12T15:27:45;6.67;;;1.83;;
15818;SDS011;8010;53.986;12.106;2022-10-12T15:30:11;6.07;;;1.60;;
15818;SDS011;8010;53.986;12.106;2022-10-12T15:32:37;6.20;;;1.30;;
15818;SDS011;8010;53.986;12.106;2022-10-12T15:35:22;4.27;;;1.40;;
15818;SDS011;8010;53.986;12.106;2022-10-12T15:37:49;5.07;;;1.63;;
15818;SDS011;8010;53.986;12.106;2022-10-12T15:40:16;8.87;;;1.93;;
15818;SDS011;8010;53.986;12.106;2022-10-12T15:42:44;5.27;;;2.40;;
15818;SDS011;8010;53.986;12.106;2022-10-12T15:47:51;8.07;;;2.73;;
15818;SDS011;8010;53.986;12.106;2022-10-12T15:50:19;11.30;;;3.10;;
15818;SDS011;8010;53.986;12.106;2022-10-12T15:52:47;9.93;;;3.10;;
15818;SDS011;8010;53.986;12.106;2022-10-12T15:55:17;7.37;;;2.73;;
15818;SDS011;8010;53.986;12.106;2022-10-12T15:57:46;8.47;;;3.00;;
15818;SDS011;8010;53.986;12.106;2022-10-12T16:00:12;11.17;;;3.13;;
15818;SDS011;8010;53.986;12.106;2022-10-12T16:02:39;7.87;;;3.10;;
15818;SDS011;8010;53.986;12.106;2022-10-12T16:05:10;8.33;;;3.27;;
15818;SDS011;8010;53.986;12.106;2022-10-12T16:07:58;10.37;;;3.30;;
15818;SDS011;8010;53.986;12.106;2022-10-12T16:10:26;12.23;;;3.40;;
15818;SDS011;8010;53.986;12.106;2022-10-12T16:12:54;9.87;;;3.07;;
15818;SDS011;8010;53.986;12.106;2022-10-12T16:15:27;6.60;;;2.97;;
15818;SDS011;8010;53.986;12.106;2022-10-12T16:17:55;7.13;;;2.60;;
15818;SDS011;8010;53.986;12.106;2022-10-12T16:20:22;7.03;;;3.10;;
15818;SDS011;8010;53.986;12.106;2022-10-12T16:22:48;7.73;;;2.10;;
15818;SDS011;8010;53.986;12.106;2022-10-12T16:25:15;5.47;;;2.40;;
15818;SDS011;8010;53.986;12.106;2022-10-12T16:27:42;6.70;;;2.70;;
15818;SDS011;8010;53.986;12.106;2022-10-12T16:30:09;10.70;;;2.47;;
15818;SDS011;8010;53.986;12.106;2022-10-12T16:32:35;10.07;;;2.90;;
15818;SDS011;8010;53.986;12.106;2022-10-12T16:35:01;10.90;;;2.53;;
15818;SDS011;8010;53.986;12.106;2022-10-12T16:37:28;10.07;;;2.20;;
15818;SDS011;8010;53.986;12.106;2022-10-12T16:39:54;9.87;;;2.60;;
15818;SDS011;8010;53.986;12.106;2022-10-12T16:42:19;10.83;;;2.90;;
15818;SDS011;8010;53.986;12.106;2022-10-12T16:44:46;5.80;;;1.93;;
15818;SDS011;8010;53.986;12.106;2022-10-12T16:47:11;7.43;;;2.30;;
15818;SDS011;8010;53.986;12.106;2022-10-12T16:49:37;6.73;;;1.50;;
15818;SDS011;8010;53.986;12.106;2022-10-12T16:52:04;7.60;;;2.17;;
15818;SDS011;8010;53.986;12.106;2022-10-12T16:54:30;4.83;;;2.17;;